Parrottsville, TN (37843)

6:11 PM EDT on April 22, 2018 (GMT -0400)
Parrottsville TN | | Change Station
Active Advisory: Wind Advisory

Elev 1352 ft 35.97 °N, 83.11 °W | Updated 3 seconds ago

Mostly Cloudy
Mostly Cloudy
64.6 °F
Feels Like 64.6 °F
N
2.5
Wind Variable Wind from West
Gusts 4.9 mph

Today
High -- | Low -- °F
--% Chance of Precip.
Yesterday
High -- | Low -- °F
Precip. -- in
Pressure 30.19 in
Visibility 10.0 miles
Clouds Clear
Dew Point 48 °F
Humidity 54%
Rainfall 0.00 in
Snow Depth Not available.
6:50 AM 8:11 PM
Waxing Crescent, 50% visible
METAR K0VG 222155Z AUTO 14005KT 10SM CLR 19/08 A3019 RMK AO2
Pressure 30.19 in
Visibility 10.0 miles
Clouds Clear
Dew Point 48 °F
Humidity 54%
Rainfall 0.00 in
Snow Depth Not available.
6:50 AM 8:11 PM
Waxing Crescent, 50% visible
METAR K0VG 222155Z AUTO 14005KT 10SM CLR 19/08 A3019 RMK AO2

Get Your Daily Forecast Email!

Thanks for signing up!

Be on the lookout for a verification email in your inbox.

You'll start receiving severe weather alerts in your inbox..

×

10-Day Weather Forecast

Almanac

Astronomy

Apr. 22, 2018 Rise Set
Actual Time
Civil Twilight
Nautical Twilight
Astronomical Twilight
Moon
Length of Visible Light
Length of Day
Tomorrow will be .
, % of the Moon is Illuminated

Today's Extremes

State Highs State Lows

Community

WunderPhotos

Category 6

Welcome to Category 6. This is the collective home for Weather Underground's featured writeups by Dr. Jeff Masters (right), Bob Henson (left), Chris Burt, and other regular contributors.

Nearby

Air Quality

  Air Quality AQ Index Pollutant
Not available.

Snow Depth

Station Depth Elevation

Earthquake Activity

City Distance Mag. Time & Date
Minimum magnitude displayed is 2.5.

Coastal Water Temperatures

Place Temperature

Stations

Nearby Weather Stations

Station Location Temp. Windchill Dew Point Humidity Wind Precip. Elev Updated Type
                   

Watches & Warnings

Wind Advisory
Issued: 3:27 PM EDT Apr. 22, 2018 – National Weather Service

... Wind Advisory in effect from 11 PM this evening to 2 am EDT
Tuesday...

The National Weather Service in Morristown has issued a Wind
Advisory, which is in effect from 11 PM this evening to 2 am EDT
Tuesday.

* Event... southeast winds 15 to 30 mph, with gusts up to 50 mph
in higher elevations and in the foothills.

* Timing... this evening and continuing through tonight.

* Impacts... weak trees and large tree limbs may be blown down.
Loose outdoor objects should be secured.

Precautionary/preparedness actions...

A Wind Advisory means that winds of 26 to 39 mph and/or gusts of
40 to 57 mph are expected or occurring. Winds this strong can
make driving difficult... especially for high profile vehicles.
Use extra caution.